sensor_id;sensor_type;location;lat;lon;timestamp;P1;durP1;ratioP1;P2;durP2;ratioP2
68247;SDS011;55064;49.636;12.164;2023-04-16T00:01:54;20.00;;;8.77;;
68247;SDS011;55064;49.636;12.164;2023-04-16T00:04:19;21.67;;;9.20;;
68247;SDS011;55064;49.636;12.164;2023-04-16T00:06:45;18.88;;;8.73;;
68247;SDS011;55064;49.636;12.164;2023-04-16T00:09:13;19.87;;;9.20;;
68247;SDS011;55064;49.636;12.164;2023-04-16T00:11:38;16.92;;;8.45;;
68247;SDS011;55064;49.636;12.164;2023-04-16T00:14:06;18.83;;;8.77;;
68247;SDS011;55064;49.636;12.164;2023-04-16T00:16:40;18.00;;;8.40;;
68247;SDS011;55064;49.636;12.164;2023-04-16T00:19:06;19.70;;;9.32;;
68247;SDS011;55064;49.636;12.164;2023-04-16T00:21:31;20.07;;;8.93;;
68247;SDS011;55064;49.636;12.164;2023-04-16T00:23:56;18.20;;;8.80;;
68247;SDS011;55064;49.636;12.164;2023-04-16T00:26:24;16.60;;;8.57;;
68247;SDS011;55064;49.636;12.164;2023-04-16T00:28:50;17.17;;;8.55;;
68247;SDS011;55064;49.636;12.164;2023-04-16T00:31:15;17.53;;;8.50;;
68247;SDS011;55064;49.636;12.164;2023-04-16T00:33:42;16.87;;;8.20;;
68247;SDS011;55064;49.636;12.164;2023-04-16T00:36:07;17.73;;;8.75;;
68247;SDS011;55064;49.636;12.164;2023-04-16T00:38:33;16.40;;;8.27;;
68247;SDS011;55064;49.636;12.164;2023-04-16T00:40:59;18.83;;;8.23;;
68247;SDS011;55064;49.636;12.164;2023-04-16T00:43:24;17.43;;;8.00;;
68247;SDS011;55064;49.636;12.164;2023-04-16T00:45:54;17.58;;;8.68;;
68247;SDS011;55064;49.636;12.164;2023-04-16T00:48:21;31.13;;;13.15;;
68247;SDS011;55064;49.636;12.164;2023-04-16T00:50:47;38.60;;;17.13;;
68247;SDS011;55064;49.636;12.164;2023-04-16T00:53:17;51.00;;;22.13;;
68247;SDS011;55064;49.636;12.164;2023-04-16T00:55:43;31.13;;;13.40;;
68247;SDS011;55064;49.636;12.164;2023-04-16T00:58:09;30.33;;;13.00;;
68247;SDS011;55064;49.636;12.164;2023-04-16T01:00:35;31.73;;;15.20;;
68247;SDS011;55064;49.636;12.164;2023-04-16T01:03:01;28.67;;;14.33;;
68247;SDS011;55064;49.636;12.164;2023-04-16T01:05:29;26.08;;;13.15;;
68247;SDS011;55064;49.636;12.164;2023-04-16T01:07:57;27.52;;;12.18;;
68247;SDS011;55064;49.636;12.164;2023-04-16T01:10:26;25.33;;;11.32;;
68247;SDS011;55064;49.636;12.164;2023-04-16T01:12:52;20.10;;;9.60;;
68247;SDS011;55064;49.636;12.164;2023-04-16T01:15:17;18.33;;;8.85;;
68247;SDS011;55064;49.636;12.164;2023-04-16T01:17:43;20.53;;;8.57;;
68247;SDS011;55064;49.636;12.164;2023-04-16T01:20:10;19.45;;;9.02;;
68247;SDS011;55064;49.636;12.164;2023-04-16T01:22:36;20.23;;;9.40;;
68247;SDS011;55064;49.636;12.164;2023-04-16T01:25:02;17.88;;;8.93;;
68247;SDS011;55064;49.636;12.164;2023-04-16T01:27:30;19.25;;;9.32;;
68247;SDS011;55064;49.636;12.164;2023-04-16T01:29:56;19.47;;;8.67;;
68247;SDS011;55064;49.636;12.164;2023-04-16T01:32:22;18.08;;;9.20;;
68247;SDS011;55064;49.636;12.164;2023-04-16T01:34:47;18.80;;;8.37;;
68247;SDS011;55064;49.636;12.164;2023-04-16T01:37:12;18.77;;;8.27;;
68247;SDS011;55064;49.636;12.164;2023-04-16T01:39:38;19.40;;;7.97;;
68247;SDS011;55064;49.636;12.164;2023-04-16T01:42:05;17.90;;;8.23;;
68247;SDS011;55064;49.636;12.164;2023-04-16T01:44:30;15.20;;;7.47;;
68247;SDS011;55064;49.636;12.164;2023-04-16T01:46:56;18.08;;;8.65;;
68247;SDS011;55064;49.636;12.164;2023-04-16T01:49:21;17.33;;;8.13;;
68247;SDS011;55064;49.636;12.164;2023-04-16T01:51:48;18.60;;;8.30;;
68247;SDS011;55064;49.636;12.164;2023-04-16T01:54:14;17.45;;;8.10;;
68247;SDS011;55064;49.636;12.164;2023-04-16T01:56:40;17.08;;;8.23;;
68247;SDS011;55064;49.636;12.164;2023-04-16T01:59:05;19.33;;;8.80;;
68247;SDS011;55064;49.636;12.164;2023-04-16T02:01:33;19.92;;;9.02;;
68247;SDS011;55064;49.636;12.164;2023-04-16T02:03:58;18.60;;;8.73;;
68247;SDS011;55064;49.636;12.164;2023-04-16T02:06:24;20.10;;;9.13;;
68247;SDS011;55064;49.636;12.164;2023-04-16T02:08:51;18.70;;;8.57;;
68247;SDS011;55064;49.636;12.164;2023-04-16T02:11:16;19.25;;;8.93;;
68247;SDS011;55064;49.636;12.164;2023-04-16T02:13:41;21.00;;;8.13;;
68247;SDS011;55064;49.636;12.164;2023-04-16T02:16:07;20.77;;;9.23;;
68247;SDS011;55064;49.636;12.164;2023-04-16T02:18:33;19.20;;;7.95;;
68247;SDS011;55064;49.636;12.164;2023-04-16T02:21:00;20.33;;;8.60;;
68247;SDS011;55064;49.636;12.164;2023-04-16T02:23:26;19.67;;;8.47;;
68247;SDS011;55064;49.636;12.164;2023-04-16T02:25:52;21.95;;;9.23;;
68247;SDS011;55064;49.636;12.164;2023-04-16T02:28:19;20.83;;;9.32;;
68247;SDS011;55064;49.636;12.164;2023-04-16T02:30:46;21.70;;;9.23;;
68247;SDS011;55064;49.636;12.164;2023-04-16T02:33:11;19.60;;;9.00;;
68247;SDS011;55064;49.636;12.164;2023-04-16T02:35:44;20.90;;;9.13;;
68247;SDS011;55064;49.636;12.164;2023-04-16T02:38:10;20.52;;;8.30;;
68247;SDS011;55064;49.636;12.164;2023-04-16T02:40:35;20.23;;;9.03;;
68247;SDS011;55064;49.636;12.164;2023-04-16T02:43:04;21.35;;;9.43;;
68247;SDS011;55064;49.636;12.164;2023-04-16T02:45:34;21.58;;;8.70;;
68247;SDS011;55064;49.636;12.164;2023-04-16T02:47:59;19.10;;;8.57;;
68247;SDS011;55064;49.636;12.164;2023-04-16T02:50:25;18.73;;;8.70;;
68247;SDS011;55064;49.636;12.164;2023-04-16T02:52:51;20.17;;;8.90;;
68247;SDS011;55064;49.636;12.164;2023-04-16T02:55:18;22.13;;;9.02;;
68247;SDS011;55064;49.636;12.164;2023-04-16T02:57:44;19.85;;;9.30;;
68247;SDS011;55064;49.636;12.164;2023-04-16T03:00:09;21.93;;;8.73;;
68247;SDS011;55064;49.636;12.164;2023-04-16T03:02:35;20.33;;;9.30;;
68247;SDS011;55064;49.636;12.164;2023-04-16T03:05:02;20.67;;;8.53;;
68247;SDS011;55064;49.636;12.164;2023-04-16T03:07:30;17.67;;;8.05;;
68247;SDS011;55064;49.636;12.164;2023-04-16T03:09:56;22.93;;;9.60;;
68247;SDS011;55064;49.636;12.164;2023-04-16T03:12:22;20.70;;;9.47;;
68247;SDS011;55064;49.636;12.164;2023-04-16T03:14:49;21.30;;;9.38;;
68247;SDS011;55064;49.636;12.164;2023-04-16T03:17:16;20.90;;;9.13;;
68247;SDS011;55064;49.636;12.164;2023-04-16T03:19:42;21.07;;;9.10;;
68247;SDS011;55064;49.636;12.164;2023-04-16T03:22:07;22.17;;;9.07;;
68247;SDS011;55064;49.636;12.164;2023-04-16T03:24:33;21.60;;;9.50;;
68247;SDS011;55064;49.636;12.164;2023-04-16T03:27:00;24.00;;;9.95;;
68247;SDS011;55064;49.636;12.164;2023-04-16T03:29:31;24.55;;;10.00;;
68247;SDS011;55064;49.636;12.164;2023-04-16T03:31:59;25.52;;;9.93;;
68247;SDS011;55064;49.636;12.164;2023-04-16T03:34:24;25.00;;;9.38;;
68247;SDS011;55064;49.636;12.164;2023-04-16T03:36:52;26.80;;;9.40;;
68247;SDS011;55064;49.636;12.164;2023-04-16T03:39:20;26.90;;;10.20;;
68247;SDS011;55064;49.636;12.164;2023-04-16T03:41:45;26.00;;;9.97;;
68247;SDS011;55064;49.636;12.164;2023-04-16T03:44:10;29.00;;;10.13;;
68247;SDS011;55064;49.636;12.164;2023-04-16T03:46:37;28.80;;;10.03;;
68247;SDS011;55064;49.636;12.164;2023-04-16T03:49:02;31.27;;;10.60;;
68247;SDS011;55064;49.636;12.164;2023-04-16T03:51:28;29.37;;;10.47;;
68247;SDS011;55064;49.636;12.164;2023-04-16T03:53:56;29.20;;;10.70;;
68247;SDS011;55064;49.636;12.164;2023-04-16T03:56:22;27.48;;;10.23;;
68247;SDS011;55064;49.636;12.164;2023-04-16T03:58:47;31.47;;;11.17;;
68247;SDS011;55064;49.636;12.164;2023-04-16T04:04:35;31.48;;;10.65;;
68247;SDS011;55064;49.636;12.164;2023-04-16T04:10:24;26.50;;;10.20;;
68247;SDS011;55064;49.636;12.164;2023-04-16T04:16:11;31.67;;;11.07;;
68247;SDS011;55064;49.636;12.164;2023-04-16T04:40:28;26.73;;;10.15;;
68247;SDS011;55064;49.636;12.164;2023-04-16T04:46:20;26.23;;;10.57;;
68247;SDS011;55064;49.636;12.164;2023-04-16T04:49:03;28.77;;;10.88;;
68247;SDS011;55064;49.636;12.164;2023-04-16T04:58:00;26.77;;;10.07;;
68247;SDS011;55064;49.636;12.164;2023-04-16T05:00:41;24.85;;;10.52;;
68247;SDS011;55064;49.636;12.164;2023-04-16T05:03:18;28.65;;;11.40;;
68247;SDS011;55064;49.636;12.164;2023-04-16T05:09:06;27.10;;;10.90;;
68247;SDS011;55064;49.636;12.164;2023-04-16T05:14:57;26.33;;;10.85;;
68247;SDS011;55064;49.636;12.164;2023-04-16T05:20:39;26.98;;;10.88;;
68247;SDS011;55064;49.636;12.164;2023-04-16T05:29:49;26.23;;;10.95;;
68247;SDS011;55064;49.636;12.164;2023-04-16T05:35:40;28.80;;;10.90;;
68247;SDS011;55064;49.636;12.164;2023-04-16T05:44:34;24.90;;;10.57;;
68247;SDS011;55064;49.636;12.164;2023-04-16T05:47:07;28.05;;;10.93;;
68247;SDS011;55064;49.636;12.164;2023-04-16T06:05:40;24.52;;;9.63;;
68247;SDS011;55064;49.636;12.164;2023-04-16T06:11:28;21.77;;;9.30;;
68247;SDS011;55064;49.636;12.164;2023-04-16T06:13:54;24.13;;;10.47;;
68247;SDS011;55064;49.636;12.164;2023-04-16T06:16:22;21.60;;;9.90;;
68247;SDS011;55064;49.636;12.164;2023-04-16T06:18:54;22.90;;;8.30;;
68247;SDS011;55064;49.636;12.164;2023-04-16T06:24:41;23.85;;;9.50;;
68247;SDS011;55064;49.636;12.164;2023-04-16T06:39:09;22.85;;;8.95;;
68247;SDS011;55064;49.636;12.164;2023-04-16T06:56:18;24.47;;;9.23;;
68247;SDS011;55064;49.636;12.164;2023-04-16T06:58:46;21.60;;;9.15;;
68247;SDS011;55064;49.636;12.164;2023-04-16T07:04:03;18.75;;;7.65;;
68247;SDS011;55064;49.636;12.164;2023-04-16T07:06:30;18.60;;;7.85;;
68247;SDS011;55064;49.636;12.164;2023-04-16T07:08:56;20.17;;;7.57;;
68247;SDS011;55064;49.636;12.164;2023-04-16T07:11:21;15.20;;;6.80;;
68247;SDS011;55064;49.636;12.164;2023-04-16T07:13:53;15.60;;;5.83;;
68247;SDS011;55064;49.636;12.164;2023-04-16T07:19:40;15.02;;;6.53;;
68247;SDS011;55064;49.636;12.164;2023-04-16T07:22:08;12.80;;;5.60;;
68247;SDS011;55064;49.636;12.164;2023-04-16T07:24:35;14.00;;;5.70;;
68247;SDS011;55064;49.636;12.164;2023-04-16T07:27:00;12.93;;;5.60;;
68247;SDS011;55064;49.636;12.164;2023-04-16T07:29:25;13.53;;;5.53;;
68247;SDS011;55064;49.636;12.164;2023-04-16T07:31:53;14.57;;;6.30;;
68247;SDS011;55064;49.636;12.164;2023-04-16T07:34:20;15.65;;;5.72;;
68247;SDS011;55064;49.636;12.164;2023-04-16T07:36:46;12.43;;;5.43;;
68247;SDS011;55064;49.636;12.164;2023-04-16T07:39:17;13.30;;;5.00;;
68247;SDS011;55064;49.636;12.164;2023-04-16T07:41:42;13.63;;;5.27;;
68247;SDS011;55064;49.636;12.164;2023-04-16T07:44:08;12.63;;;5.20;;
68247;SDS011;55064;49.636;12.164;2023-04-16T07:46:34;12.67;;;5.67;;
68247;SDS011;55064;49.636;12.164;2023-04-16T07:48:59;11.40;;;5.28;;
68247;SDS011;55064;49.636;12.164;2023-04-16T07:51:25;12.77;;;5.67;;
68247;SDS011;55064;49.636;12.164;2023-04-16T07:53:51;12.05;;;5.15;;
68247;SDS011;55064;49.636;12.164;2023-04-16T07:56:16;12.23;;;5.50;;
68247;SDS011;55064;49.636;12.164;2023-04-16T07:58:43;11.73;;;5.20;;
68247;SDS011;55064;49.636;12.164;2023-04-16T08:01:08;12.27;;;5.30;;
68247;SDS011;55064;49.636;12.164;2023-04-16T08:03:34;12.07;;;5.33;;
68247;SDS011;55064;49.636;12.164;2023-04-16T08:05:59;11.35;;;5.15;;
68247;SDS011;55064;49.636;12.164;2023-04-16T08:08:25;11.40;;;4.87;;
68247;SDS011;55064;49.636;12.164;2023-04-16T08:10:50;12.13;;;5.53;;
68247;SDS011;55064;49.636;12.164;2023-04-16T08:13:24;11.68;;;5.03;;
68247;SDS011;55064;49.636;12.164;2023-04-16T08:15:50;11.30;;;4.88;;
68247;SDS011;55064;49.636;12.164;2023-04-16T08:18:18;12.50;;;5.63;;
68247;SDS011;55064;49.636;12.164;2023-04-16T08:20:46;12.93;;;5.57;;
68247;SDS011;55064;49.636;12.164;2023-04-16T08:23:12;12.53;;;5.47;;
68247;SDS011;55064;49.636;12.164;2023-04-16T08:25:41;11.35;;;5.30;;
68247;SDS011;55064;49.636;12.164;2023-04-16T08:28:07;14.93;;;6.43;;
68247;SDS011;55064;49.636;12.164;2023-04-16T08:30:32;14.45;;;5.78;;
68247;SDS011;55064;49.636;12.164;2023-04-16T08:32:57;13.50;;;5.30;;
68247;SDS011;55064;49.636;12.164;2023-04-16T08:35:24;11.47;;;5.67;;
68247;SDS011;55064;49.636;12.164;2023-04-16T08:37:50;12.93;;;6.05;;
68247;SDS011;55064;49.636;12.164;2023-04-16T08:40:15;14.23;;;5.50;;
68247;SDS011;55064;49.636;12.164;2023-04-16T08:42:45;10.52;;;5.15;;
68247;SDS011;55064;49.636;12.164;2023-04-16T08:45:16;11.30;;;5.13;;
68247;SDS011;55064;49.636;12.164;2023-04-16T08:47:47;10.68;;;4.90;;
68247;SDS011;55064;49.636;12.164;2023-04-16T08:50:14;11.07;;;4.80;;
68247;SDS011;55064;49.636;12.164;2023-04-16T08:52:45;10.97;;;4.87;;
68247;SDS011;55064;49.636;12.164;2023-04-16T08:55:15;12.98;;;5.45;;
68247;SDS011;55064;49.636;12.164;2023-04-16T08:57:53;11.65;;;5.57;;
68247;SDS011;55064;49.636;12.164;2023-04-16T09:00:22;11.23;;;5.32;;
68247;SDS011;55064;49.636;12.164;2023-04-16T09:02:48;11.77;;;5.40;;
68247;SDS011;55064;49.636;12.164;2023-04-16T09:05:14;12.35;;;5.32;;
68247;SDS011;55064;49.636;12.164;2023-04-16T09:07:49;12.32;;;5.60;;
68247;SDS011;55064;49.636;12.164;2023-04-16T09:10:16;13.32;;;5.43;;
68247;SDS011;55064;49.636;12.164;2023-04-16T09:12:42;11.77;;;4.80;;
68247;SDS011;55064;49.636;12.164;2023-04-16T09:15:11;10.63;;;4.45;;
68247;SDS011;55064;49.636;12.164;2023-04-16T09:17:38;10.80;;;4.50;;
68247;SDS011;55064;49.636;12.164;2023-04-16T09:20:04;10.05;;;4.65;;
68247;SDS011;55064;49.636;12.164;2023-04-16T09:22:34;9.55;;;4.53;;
68247;SDS011;55064;49.636;12.164;2023-04-16T09:25:00;10.35;;;4.40;;
68247;SDS011;55064;49.636;12.164;2023-04-16T09:27:28;8.80;;;3.63;;
68247;SDS011;55064;49.636;12.164;2023-04-16T09:29:55;8.77;;;3.90;;
68247;SDS011;55064;49.636;12.164;2023-04-16T09:32:24;8.85;;;3.70;;
68247;SDS011;55064;49.636;12.164;2023-04-16T09:35:00;7.87;;;3.10;;
68247;SDS011;55064;49.636;12.164;2023-04-16T09:37:27;8.13;;;3.40;;
68247;SDS011;55064;49.636;12.164;2023-04-16T09:40:01;8.63;;;3.45;;
68247;SDS011;55064;49.636;12.164;2023-04-16T09:42:34;8.07;;;3.75;;
68247;SDS011;55064;49.636;12.164;2023-04-16T09:45:01;7.53;;;3.45;;
68247;SDS011;55064;49.636;12.164;2023-04-16T09:47:42;8.53;;;3.97;;
68247;SDS011;55064;49.636;12.164;2023-04-16T09:50:09;8.32;;;3.60;;
68247;SDS011;55064;49.636;12.164;2023-04-16T09:52:41;7.82;;;3.20;;
68247;SDS011;55064;49.636;12.164;2023-04-16T09:55:07;6.70;;;2.95;;
68247;SDS011;55064;49.636;12.164;2023-04-16T09:57:36;7.38;;;3.20;;
68247;SDS011;55064;49.636;12.164;2023-04-16T10:00:05;6.87;;;2.90;;
68247;SDS011;55064;49.636;12.164;2023-04-16T10:02:35;9.80;;;2.72;;
68247;SDS011;55064;49.636;12.164;2023-04-16T10:05:05;6.68;;;2.60;;
68247;SDS011;55064;49.636;12.164;2023-04-16T10:07:34;7.55;;;2.97;;
68247;SDS011;55064;49.636;12.164;2023-04-16T10:10:03;7.10;;;2.90;;
68247;SDS011;55064;49.636;12.164;2023-04-16T10:12:29;7.80;;;2.95;;
68247;SDS011;55064;49.636;12.164;2023-04-16T10:14:58;9.48;;;3.50;;
68247;SDS011;55064;49.636;12.164;2023-04-16T10:17:26;7.25;;;2.92;;
68247;SDS011;55064;49.636;12.164;2023-04-16T10:19:56;7.53;;;3.30;;
68247;SDS011;55064;49.636;12.164;2023-04-16T10:22:22;8.40;;;3.60;;
68247;SDS011;55064;49.636;12.164;2023-04-16T10:24:48;8.88;;;3.50;;
68247;SDS011;55064;49.636;12.164;2023-04-16T10:27:14;8.73;;;3.73;;
68247;SDS011;55064;49.636;12.164;2023-04-16T10:29:41;7.80;;;3.37;;
68247;SDS011;55064;49.636;12.164;2023-04-16T10:32:08;8.00;;;3.50;;
68247;SDS011;55064;49.636;12.164;2023-04-16T10:34:34;8.52;;;3.78;;
68247;SDS011;55064;49.636;12.164;2023-04-16T10:40:25;8.07;;;3.27;;
68247;SDS011;55064;49.636;12.164;2023-04-16T10:43:00;8.60;;;3.85;;
68247;SDS011;55064;49.636;12.164;2023-04-16T10:54:52;8.73;;;4.40;;
68247;SDS011;55064;49.636;12.164;2023-04-16T11:00:22;7.70;;;3.60;;
68247;SDS011;55064;49.636;12.164;2023-04-16T11:02:56;8.30;;;3.67;;
68247;SDS011;55064;49.636;12.164;2023-04-16T11:05:43;9.20;;;3.75;;
68247;SDS011;55064;49.636;12.164;2023-04-16T11:08:15;8.50;;;3.70;;
68247;SDS011;55064;49.636;12.164;2023-04-16T11:10:41;8.60;;;3.78;;
68247;SDS011;55064;49.636;12.164;2023-04-16T11:13:07;7.68;;;3.35;;
68247;SDS011;55064;49.636;12.164;2023-04-16T11:15:33;7.50;;;3.35;;
68247;SDS011;55064;49.636;12.164;2023-04-16T11:20:55;7.93;;;3.50;;
68247;SDS011;55064;49.636;12.164;2023-04-16T11:23:27;7.50;;;3.17;;
68247;SDS011;55064;49.636;12.164;2023-04-16T11:35:18;7.32;;;3.15;;
68247;SDS011;55064;49.636;12.164;2023-04-16T11:49:53;7.18;;;3.20;;
68247;SDS011;55064;49.636;12.164;2023-04-16T11:52:28;6.87;;;2.87;;
68247;SDS011;55064;49.636;12.164;2023-04-16T11:54:59;6.88;;;3.17;;
68247;SDS011;55064;49.636;12.164;2023-04-16T11:57:27;7.40;;;3.10;;
68247;SDS011;55064;49.636;12.164;2023-04-16T12:06:06;7.28;;;3.40;;
68247;SDS011;55064;49.636;12.164;2023-04-16T12:11:55;6.47;;;2.90;;
68247;SDS011;55064;49.636;12.164;2023-04-16T12:31:04;6.65;;;2.70;;
68247;SDS011;55064;49.636;12.164;2023-04-16T12:37:06;6.30;;;2.70;;
68247;SDS011;55064;49.636;12.164;2023-04-16T12:43:09;6.28;;;2.35;;
68247;SDS011;55064;49.636;12.164;2023-04-16T12:51:37;6.10;;;2.30;;
68247;SDS011;55064;49.636;12.164;2023-04-16T12:57:27;5.78;;;2.10;;
68247;SDS011;55064;49.636;12.164;2023-04-16T13:03:16;5.28;;;1.90;;
68247;SDS011;55064;49.636;12.164;2023-04-16T13:05:52;5.63;;;2.10;;
68247;SDS011;55064;49.636;12.164;2023-04-16T13:11:39;5.43;;;1.93;;
68247;SDS011;55064;49.636;12.164;2023-04-16T13:14:05;6.40;;;2.20;;
68247;SDS011;55064;49.636;12.164;2023-04-16T13:16:31;6.13;;;2.40;;
68247;SDS011;55064;49.636;12.164;2023-04-16T13:18:56;5.57;;;2.28;;
68247;SDS011;55064;49.636;12.164;2023-04-16T13:21:22;6.43;;;2.53;;
68247;SDS011;55064;49.636;12.164;2023-04-16T13:23:48;6.30;;;2.60;;
68247;SDS011;55064;49.636;12.164;2023-04-16T13:26:14;5.53;;;2.50;;
68247;SDS011;55064;49.636;12.164;2023-04-16T13:28:40;5.70;;;2.20;;
68247;SDS011;55064;49.636;12.164;2023-04-16T13:31:05;5.30;;;2.47;;
68247;SDS011;55064;49.636;12.164;2023-04-16T13:33:31;5.90;;;2.53;;
68247;SDS011;55064;49.636;12.164;2023-04-16T13:35:56;5.32;;;2.22;;
68247;SDS011;55064;49.636;12.164;2023-04-16T13:38:23;5.27;;;2.20;;
68247;SDS011;55064;49.636;12.164;2023-04-16T13:40:49;5.82;;;2.28;;
68247;SDS011;55064;49.636;12.164;2023-04-16T13:43:14;4.93;;;1.90;;
68247;SDS011;55064;49.636;12.164;2023-04-16T13:45:42;5.60;;;2.25;;
68247;SDS011;55064;49.636;12.164;2023-04-16T13:48:09;5.97;;;2.60;;
68247;SDS011;55064;49.636;12.164;2023-04-16T13:50:35;6.40;;;2.20;;
68247;SDS011;55064;49.636;12.164;2023-04-16T13:53:00;6.17;;;2.70;;
68247;SDS011;55064;49.636;12.164;2023-04-16T13:55:26;6.00;;;2.40;;
68247;SDS011;55064;49.636;12.164;2023-04-16T13:57:51;6.55;;;2.35;;
68247;SDS011;55064;49.636;12.164;2023-04-16T14:00:17;6.90;;;2.63;;
68247;SDS011;55064;49.636;12.164;2023-04-16T14:02:44;6.05;;;2.70;;
68247;SDS011;55064;49.636;12.164;2023-04-16T14:05:10;6.32;;;2.85;;
68247;SDS011;55064;49.636;12.164;2023-04-16T14:07:37;5.97;;;2.67;;
68247;SDS011;55064;49.636;12.164;2023-04-16T14:10:03;6.78;;;2.50;;
68247;SDS011;55064;49.636;12.164;2023-04-16T14:12:31;6.28;;;2.50;;
68247;SDS011;55064;49.636;12.164;2023-04-16T14:14:56;6.00;;;2.43;;
68247;SDS011;55064;49.636;12.164;2023-04-16T14:17:22;5.10;;;2.10;;
68247;SDS011;55064;49.636;12.164;2023-04-16T14:19:48;5.53;;;2.27;;
68247;SDS011;55064;49.636;12.164;2023-04-16T14:22:14;4.97;;;2.03;;
68247;SDS011;55064;49.636;12.164;2023-04-16T14:24:43;5.32;;;2.33;;
68247;SDS011;55064;49.636;12.164;2023-04-16T14:27:08;5.37;;;1.83;;
68247;SDS011;55064;49.636;12.164;2023-04-16T14:29:34;5.80;;;2.60;;
68247;SDS011;55064;49.636;12.164;2023-04-16T14:32:00;4.90;;;1.92;;
68247;SDS011;55064;49.636;12.164;2023-04-16T14:34:26;5.63;;;2.40;;
68247;SDS011;55064;49.636;12.164;2023-04-16T14:36:51;4.90;;;2.00;;
68247;SDS011;55064;49.636;12.164;2023-04-16T14:39:17;5.43;;;2.30;;
68247;SDS011;55064;49.636;12.164;2023-04-16T14:41:45;5.77;;;1.93;;
68247;SDS011;55064;49.636;12.164;2023-04-16T14:44:10;4.60;;;1.80;;
68247;SDS011;55064;49.636;12.164;2023-04-16T14:46:36;5.10;;;2.17;;
68247;SDS011;55064;49.636;12.164;2023-04-16T14:49:05;6.88;;;3.45;;
68247;SDS011;55064;49.636;12.164;2023-04-16T14:51:31;9.93;;;2.97;;
68247;SDS011;55064;49.636;12.164;2023-04-16T14:54:00;5.30;;;2.45;;
68247;SDS011;55064;49.636;12.164;2023-04-16T14:56:25;5.20;;;2.10;;
68247;SDS011;55064;49.636;12.164;2023-04-16T14:58:52;6.33;;;2.50;;
68247;SDS011;55064;49.636;12.164;2023-04-16T15:01:19;5.50;;;2.00;;
68247;SDS011;55064;49.636;12.164;2023-04-16T15:03:46;5.43;;;2.13;;
68247;SDS011;55064;49.636;12.164;2023-04-16T15:06:11;5.57;;;1.87;;
68247;SDS011;55064;49.636;12.164;2023-04-16T15:08:37;4.85;;;2.00;;
68247;SDS011;55064;49.636;12.164;2023-04-16T15:11:08;5.27;;;2.03;;
68247;SDS011;55064;49.636;12.164;2023-04-16T15:13:36;5.25;;;2.28;;
68247;SDS011;55064;49.636;12.164;2023-04-16T15:16:04;5.18;;;2.28;;
68247;SDS011;55064;49.636;12.164;2023-04-16T15:18:29;5.03;;;2.13;;
68247;SDS011;55064;49.636;12.164;2023-04-16T15:20:56;6.43;;;2.60;;
68247;SDS011;55064;49.636;12.164;2023-04-16T15:23:21;5.20;;;2.30;;
68247;SDS011;55064;49.636;12.164;2023-04-16T15:25:47;5.18;;;2.03;;
68247;SDS011;55064;49.636;12.164;2023-04-16T15:37:21;5.70;;;2.15;;
68247;SDS011;55064;49.636;12.164;2023-04-16T15:43:15;4.40;;;1.90;;
68247;SDS011;55064;49.636;12.164;2023-04-16T15:45:50;4.75;;;1.90;;
68247;SDS011;55064;49.636;12.164;2023-04-16T15:57:22;5.30;;;2.28;;
68247;SDS011;55064;49.636;12.164;2023-04-16T15:59:50;6.40;;;2.63;;
68247;SDS011;55064;49.636;12.164;2023-04-16T16:02:16;8.15;;;3.33;;
68247;SDS011;55064;49.636;12.164;2023-04-16T16:04:41;7.03;;;3.00;;
68247;SDS011;55064;49.636;12.164;2023-04-16T16:07:11;6.88;;;3.50;;
68247;SDS011;55064;49.636;12.164;2023-04-16T16:09:36;8.35;;;3.85;;
68247;SDS011;55064;49.636;12.164;2023-04-16T16:12:04;8.87;;;4.40;;
68247;SDS011;55064;49.636;12.164;2023-04-16T16:14:31;8.15;;;3.47;;
68247;SDS011;55064;49.636;12.164;2023-04-16T16:16:58;8.93;;;4.03;;
68247;SDS011;55064;49.636;12.164;2023-04-16T16:19:25;8.32;;;3.55;;
68247;SDS011;55064;49.636;12.164;2023-04-16T16:21:52;9.00;;;4.40;;
68247;SDS011;55064;49.636;12.164;2023-04-16T16:24:17;8.85;;;4.63;;
68247;SDS011;55064;49.636;12.164;2023-04-16T16:26:43;8.13;;;4.10;;
68247;SDS011;55064;49.636;12.164;2023-04-16T16:29:08;8.50;;;3.87;;
68247;SDS011;55064;49.636;12.164;2023-04-16T16:31:34;9.70;;;4.40;;
68247;SDS011;55064;49.636;12.164;2023-04-16T16:33:59;8.80;;;4.43;;
68247;SDS011;55064;49.636;12.164;2023-04-16T16:36:26;11.43;;;6.00;;
68247;SDS011;55064;49.636;12.164;2023-04-16T16:38:51;8.80;;;4.20;;
68247;SDS011;55064;49.636;12.164;2023-04-16T16:41:30;11.37;;;6.37;;
68247;SDS011;55064;49.636;12.164;2023-04-16T16:50:39;8.57;;;4.07;;
68247;SDS011;55064;49.636;12.164;2023-04-16T16:53:17;9.87;;;4.00;;
68247;SDS011;55064;49.636;12.164;2023-04-16T17:05:10;5.47;;;2.20;;
68247;SDS011;55064;49.636;12.164;2023-04-16T17:07:38;7.40;;;2.90;;
68247;SDS011;55064;49.636;12.164;2023-04-16T17:10:14;5.78;;;1.75;;
68247;SDS011;55064;49.636;12.164;2023-04-16T17:12:44;7.57;;;2.53;;
68247;SDS011;55064;49.636;12.164;2023-04-16T17:27:11;7.25;;;2.90;;
68247;SDS011;55064;49.636;12.164;2023-04-16T17:32:58;7.18;;;2.92;;
68247;SDS011;55064;49.636;12.164;2023-04-16T17:44:56;9.20;;;4.80;;
68247;SDS011;55064;49.636;12.164;2023-04-16T17:47:21;12.35;;;6.20;;
68247;SDS011;55064;49.636;12.164;2023-04-16T17:49:53;8.40;;;4.17;;
68247;SDS011;55064;49.636;12.164;2023-04-16T17:52:23;8.73;;;4.03;;
68247;SDS011;55064;49.636;12.164;2023-04-16T17:57:46;8.45;;;3.90;;
68247;SDS011;55064;49.636;12.164;2023-04-16T18:00:11;7.20;;;3.50;;
68247;SDS011;55064;49.636;12.164;2023-04-16T18:02:40;6.43;;;3.00;;
68247;SDS011;55064;49.636;12.164;2023-04-16T18:05:06;6.83;;;2.87;;
68247;SDS011;55064;49.636;12.164;2023-04-16T18:07:32;7.32;;;3.03;;
68247;SDS011;55064;49.636;12.164;2023-04-16T18:09:58;7.28;;;3.63;;
68247;SDS011;55064;49.636;12.164;2023-04-16T18:12:24;7.90;;;3.53;;
68247;SDS011;55064;49.636;12.164;2023-04-16T18:14:49;9.73;;;3.92;;
68247;SDS011;55064;49.636;12.164;2023-04-16T18:17:15;7.80;;;3.50;;
68247;SDS011;55064;49.636;12.164;2023-04-16T18:19:42;7.75;;;3.67;;
68247;SDS011;55064;49.636;12.164;2023-04-16T18:22:10;7.65;;;3.65;;
68247;SDS011;55064;49.636;12.164;2023-04-16T18:24:38;9.90;;;3.40;;
68247;SDS011;55064;49.636;12.164;2023-04-16T18:27:04;8.33;;;3.17;;
68247;SDS011;55064;49.636;12.164;2023-04-16T18:29:31;9.85;;;4.95;;
68247;SDS011;55064;49.636;12.164;2023-04-16T18:32:00;10.30;;;4.90;;
68247;SDS011;55064;49.636;12.164;2023-04-16T18:34:25;10.23;;;5.00;;
68247;SDS011;55064;49.636;12.164;2023-04-16T18:36:53;13.73;;;6.53;;
68247;SDS011;55064;49.636;12.164;2023-04-16T18:39:19;9.57;;;4.00;;
68247;SDS011;55064;49.636;12.164;2023-04-16T18:41:45;10.40;;;5.33;;
68247;SDS011;55064;49.636;12.164;2023-04-16T18:44:11;11.65;;;5.90;;
68247;SDS011;55064;49.636;12.164;2023-04-16T18:46:38;11.75;;;6.00;;
68247;SDS011;55064;49.636;12.164;2023-04-16T18:49:04;11.00;;;5.38;;
68247;SDS011;55064;49.636;12.164;2023-04-16T18:54:51;9.80;;;4.65;;
68247;SDS011;55064;49.636;12.164;2023-04-16T18:57:21;9.67;;;4.77;;
68247;SDS011;55064;49.636;12.164;2023-04-16T18:59:49;8.32;;;4.47;;
68247;SDS011;55064;49.636;12.164;2023-04-16T19:02:14;8.30;;;3.83;;
68247;SDS011;55064;49.636;12.164;2023-04-16T19:04:42;8.77;;;3.90;;
68247;SDS011;55064;49.636;12.164;2023-04-16T19:07:12;9.50;;;4.40;;
68247;SDS011;55064;49.636;12.164;2023-04-16T19:15:58;13.37;;;5.90;;